sensor_id;sensor_type;location;lat;lon;timestamp;pressure;altitude;pressure_sealevel;temperature;humidity
54308;BME280;40208;39.778;2.710;2023-07-13T00:00:31;101215.91;;;27.96;100.00
54308;BME280;40208;39.778;2.710;2023-07-13T00:03:17;101224.56;;;28.08;100.00
54308;BME280;40208;39.778;2.710;2023-07-13T00:06:02;101201.03;;;27.82;100.00
54308;BME280;40208;39.778;2.710;2023-07-13T00:08:47;101209.94;;;27.84;100.00
54308;BME280;40208;39.778;2.710;2023-07-13T00:11:33;101205.66;;;27.82;100.00
54308;BME280;40208;39.778;2.710;2023-07-13T00:14:18;101223.91;;;27.89;100.00
54308;BME280;40208;39.778;2.710;2023-07-13T00:17:03;101224.56;;;28.00;100.00
54308;BME280;40208;39.778;2.710;2023-07-13T00:19:48;101187.06;;;27.85;100.00
54308;BME280;40208;39.778;2.710;2023-07-13T00:22:33;101140.91;;;27.51;100.00
54308;BME280;40208;39.778;2.710;2023-07-13T00:25:17;101191.00;;;27.75;100.00
54308;BME280;40208;39.778;2.710;2023-07-13T00:28:03;101224.56;;;28.08;100.00
54308;BME280;40208;39.778;2.710;2023-07-13T00:30:47;101233.13;;;28.05;100.00
54308;BME280;40208;39.778;2.710;2023-07-13T00:33:32;101185.22;;;27.69;100.00
54308;BME280;40208;39.778;2.710;2023-07-13T00:36:20;101216.06;;;27.95;100.00
54308;BME280;40208;39.778;2.710;2023-07-13T00:39:05;101107.00;;;27.21;100.00
54308;BME280;40208;39.778;2.710;2023-07-13T00:41:50;101196.44;;;27.75;100.00
54308;BME280;40208;39.778;2.710;2023-07-13T00:44:35;101167.97;;;27.69;100.00
54308;BME280;40208;39.778;2.710;2023-07-13T00:47:20;101196.47;;;27.91;100.00
54308;BME280;40208;39.778;2.710;2023-07-13T00:50:07;101005.81;;;26.67;100.00
54308;BME280;40208;39.778;2.710;2023-07-13T00:52:54;101159.13;;;27.67;100.00
54308;BME280;40208;39.778;2.710;2023-07-13T00:55:42;101149.94;;;27.52;100.00
54308;BME280;40208;39.778;2.710;2023-07-13T00:58:27;101114.81;;;27.24;100.00
54308;BME280;40208;39.778;2.710;2023-07-13T01:01:12;101219.13;;;27.83;100.00
54308;BME280;40208;39.778;2.710;2023-07-13T01:03:57;101148.75;;;27.46;100.00
54308;BME280;40208;39.778;2.710;2023-07-13T01:06:42;101197.31;;;27.67;100.00
54308;BME280;40208;39.778;2.710;2023-07-13T01:09:28;101108.66;;;27.14;100.00
54308;BME280;40208;39.778;2.710;2023-07-13T01:12:13;101105.97;;;27.05;100.00
54308;BME280;40208;39.778;2.710;2023-07-13T01:14:59;101212.81;;;27.66;100.00
54308;BME280;40208;39.778;2.710;2023-07-13T01:17:45;101173.47;;;27.36;100.00
54308;BME280;40208;39.778;2.710;2023-07-13T01:20:30;101177.38;;;27.42;100.00
54308;BME280;40208;39.778;2.710;2023-07-13T01:23:14;101208.91;;;27.53;100.00
54308;BME280;40208;39.778;2.710;2023-07-13T01:26:00;101175.31;;;27.44;100.00
54308;BME280;40208;39.778;2.710;2023-07-13T01:28:44;101232.78;;;27.67;100.00
54308;BME280;40208;39.778;2.710;2023-07-13T01:31:29;101210.94;;;27.67;100.00
54308;BME280;40208;39.778;2.710;2023-07-13T01:34:14;101191.50;;;27.54;100.00
54308;BME280;40208;39.778;2.710;2023-07-13T01:36:59;101091.81;;;26.94;100.00
54308;BME280;40208;39.778;2.710;2023-07-13T01:39:44;101147.56;;;27.32;100.00
54308;BME280;40208;39.778;2.710;2023-07-13T01:42:29;101213.00;;;27.65;100.00
54308;BME280;40208;39.778;2.710;2023-07-13T01:45:14;101225.25;;;27.77;100.00
54308;BME280;40208;39.778;2.710;2023-07-13T01:47:59;101132.19;;;27.31;100.00
54308;BME280;40208;39.778;2.710;2023-07-13T01:50:44;101173.59;;;27.43;100.00
54308;BME280;40208;39.778;2.710;2023-07-13T01:53:29;101208.22;;;27.67;100.00
54308;BME280;40208;39.778;2.710;2023-07-13T01:56:14;101129.81;;;27.28;100.00
54308;BME280;40208;39.778;2.710;2023-07-13T01:58:59;101218.44;;;27.73;100.00
54308;BME280;40208;39.778;2.710;2023-07-13T02:01:44;101189.13;;;27.42;100.00
54308;BME280;40208;39.778;2.710;2023-07-13T02:04:28;101075.94;;;26.73;100.00
54308;BME280;40208;39.778;2.710;2023-07-13T02:07:14;101136.63;;;27.07;100.00
54308;BME280;40208;39.778;2.710;2023-07-13T02:09:59;101197.31;;;27.34;100.00
54308;BME280;40208;39.778;2.710;2023-07-13T02:12:44;101209.22;;;27.41;100.00
54308;BME280;40208;39.778;2.710;2023-07-13T02:15:29;101220.97;;;27.42;100.00
54308;BME280;40208;39.778;2.710;2023-07-13T02:18:15;101221.50;;;27.37;100.00
54308;BME280;40208;39.778;2.710;2023-07-13T02:21:01;101239.56;;;27.46;100.00
54308;BME280;40208;39.778;2.710;2023-07-13T02:23:47;101119.69;;;26.71;100.00
54308;BME280;40208;39.778;2.710;2023-07-13T02:26:32;101193.50;;;27.19;100.00
54308;BME280;40208;39.778;2.710;2023-07-13T02:29:16;101203.53;;;27.18;100.00
54308;BME280;40208;39.778;2.710;2023-07-13T02:32:01;101219.59;;;27.30;100.00
54308;BME280;40208;39.778;2.710;2023-07-13T02:34:46;101211.59;;;27.20;100.00
54308;BME280;40208;39.778;2.710;2023-07-13T02:37:30;101259.16;;;27.50;100.00
54308;BME280;40208;39.778;2.710;2023-07-13T02:40:16;101228.13;;;27.26;100.00
54308;BME280;40208;39.778;2.710;2023-07-13T02:43:01;101181.50;;;26.87;100.00
54308;BME280;40208;39.778;2.710;2023-07-13T02:45:46;101225.34;;;27.18;100.00
54308;BME280;40208;39.778;2.710;2023-07-13T02:48:31;101264.41;;;27.35;100.00
54308;BME280;40208;39.778;2.710;2023-07-13T02:51:16;101265.97;;;27.46;100.00
54308;BME280;40208;39.778;2.710;2023-07-13T02:54:02;101174.72;;;26.91;100.00
54308;BME280;40208;39.778;2.710;2023-07-13T02:56:47;101041.41;;;26.14;100.00
54308;BME280;40208;39.778;2.710;2023-07-13T02:59:32;101235.47;;;27.34;100.00
54308;BME280;40208;39.778;2.710;2023-07-13T03:02:17;101138.59;;;26.73;100.00
54308;BME280;40208;39.778;2.710;2023-07-13T03:05:04;101148.47;;;26.82;100.00
54308;BME280;40208;39.778;2.710;2023-07-13T03:07:49;101219.19;;;27.08;100.00
54308;BME280;40208;39.778;2.710;2023-07-13T03:10:34;101174.34;;;26.78;100.00
54308;BME280;40208;39.778;2.710;2023-07-13T03:13:18;101189.97;;;26.76;100.00
54308;BME280;40208;39.778;2.710;2023-07-13T03:16:04;101286.22;;;27.27;100.00
54308;BME280;40208;39.778;2.710;2023-07-13T03:18:49;101261.34;;;27.22;100.00
54308;BME280;40208;39.778;2.710;2023-07-13T03:21:34;101252.91;;;27.07;100.00
54308;BME280;40208;39.778;2.710;2023-07-13T03:24:19;101251.16;;;26.90;100.00
54308;BME280;40208;39.778;2.710;2023-07-13T03:27:05;101197.78;;;26.62;100.00
54308;BME280;40208;39.778;2.710;2023-07-13T03:29:49;101230.91;;;26.92;100.00
54308;BME280;40208;39.778;2.710;2023-07-13T03:32:34;101212.25;;;26.71;100.00
54308;BME280;40208;39.778;2.710;2023-07-13T03:35:19;101169.44;;;26.47;100.00
54308;BME280;40208;39.778;2.710;2023-07-13T03:38:04;101270.72;;;26.93;100.00
54308;BME280;40208;39.778;2.710;2023-07-13T03:40:49;101283.34;;;27.02;100.00
54308;BME280;40208;39.778;2.710;2023-07-13T03:43:33;101239.06;;;26.84;100.00
54308;BME280;40208;39.778;2.710;2023-07-13T03:46:19;101217.41;;;26.74;100.00
54308;BME280;40208;39.778;2.710;2023-07-13T03:49:05;101247.38;;;26.91;100.00
54308;BME280;40208;39.778;2.710;2023-07-13T03:51:50;101248.78;;;26.95;100.00
54308;BME280;40208;39.778;2.710;2023-07-13T03:54:34;101042.13;;;25.56;100.00
54308;BME280;40208;39.778;2.710;2023-07-13T03:57:19;101255.69;;;26.73;100.00
54308;BME280;40208;39.778;2.710;2023-07-13T04:00:05;101321.69;;;27.01;100.00
54308;BME280;40208;39.778;2.710;2023-07-13T04:02:51;101328.69;;;27.12;100.00
54308;BME280;40208;39.778;2.710;2023-07-13T04:05:35;101321.75;;;27.17;100.00
54308;BME280;40208;39.778;2.710;2023-07-13T04:08:20;101224.47;;;26.59;100.00
54308;BME280;40208;39.778;2.710;2023-07-13T04:11:05;101229.56;;;26.62;100.00
54308;BME280;40208;39.778;2.710;2023-07-13T04:13:50;101252.97;;;26.73;100.00
54308;BME280;40208;39.778;2.710;2023-07-13T04:16:35;101254.69;;;26.82;100.00
54308;BME280;40208;39.778;2.710;2023-07-13T04:19:21;101215.28;;;26.60;100.00
54308;BME280;40208;39.778;2.710;2023-07-13T04:22:05;101309.59;;;27.03;100.00
54308;BME280;40208;39.778;2.710;2023-07-13T04:24:50;101301.09;;;27.06;100.00
54308;BME280;40208;39.778;2.710;2023-07-13T04:27:35;101279.59;;;26.95;100.00
54308;BME280;40208;39.778;2.710;2023-07-13T04:30:20;101303.88;;;27.15;100.00
54308;BME280;40208;39.778;2.710;2023-07-13T04:33:05;101306.97;;;27.20;100.00
54308;BME280;40208;39.778;2.710;2023-07-13T04:35:51;101226.72;;;26.72;100.00
54308;BME280;40208;39.778;2.710;2023-07-13T04:38:40;101323.34;;;27.28;100.00
54308;BME280;40208;39.778;2.710;2023-07-13T04:41:25;101281.81;;;27.00;100.00
54308;BME280;40208;39.778;2.710;2023-07-13T04:44:10;101324.78;;;27.14;100.00
54308;BME280;40208;39.778;2.710;2023-07-13T04:46:55;101220.16;;;26.48;100.00
54308;BME280;40208;39.778;2.710;2023-07-13T04:49:40;101340.38;;;27.22;100.00
54308;BME280;40208;39.778;2.710;2023-07-13T04:52:24;101311.25;;;27.22;100.00
54308;BME280;40208;39.778;2.710;2023-07-13T04:55:10;101251.63;;;26.85;100.00
54308;BME280;40208;39.778;2.710;2023-07-13T04:57:55;101183.78;;;26.57;100.00
54308;BME280;40208;39.778;2.710;2023-07-13T05:00:40;101297.81;;;27.29;100.00
54308;BME280;40208;39.778;2.710;2023-07-13T05:03:25;101306.16;;;27.36;100.00
54308;BME280;40208;39.778;2.710;2023-07-13T05:06:10;101074.28;;;25.87;100.00
54308;BME280;40208;39.778;2.710;2023-07-13T05:08:55;101227.81;;;26.87;100.00
54308;BME280;40208;39.778;2.710;2023-07-13T05:11:39;101238.41;;;26.98;100.00
54308;BME280;40208;39.778;2.710;2023-07-13T05:14:24;101232.94;;;26.90;100.00
54308;BME280;40208;39.778;2.710;2023-07-13T05:17:09;101307.69;;;27.30;100.00
54308;BME280;40208;39.778;2.710;2023-07-13T05:19:55;101282.44;;;27.20;100.00
54308;BME280;40208;39.778;2.710;2023-07-13T05:22:40;101226.78;;;26.88;100.00
54308;BME280;40208;39.778;2.710;2023-07-13T05:25:24;101308.31;;;27.24;100.00
54308;BME280;40208;39.778;2.710;2023-07-13T05:28:09;101217.00;;;26.69;100.00
54308;BME280;40208;39.778;2.710;2023-07-13T05:30:54;101209.31;;;26.56;100.00
54308;BME280;40208;39.778;2.710;2023-07-13T05:33:39;101297.97;;;26.93;100.00
54308;BME280;40208;39.778;2.710;2023-07-13T05:36:24;101230.97;;;26.40;100.00
54308;BME280;40208;39.778;2.710;2023-07-13T05:39:09;101271.13;;;26.64;100.00
54308;BME280;40208;39.778;2.710;2023-07-13T05:41:53;101319.97;;;27.00;100.00
54308;BME280;40208;39.778;2.710;2023-07-13T05:44:39;101207.81;;;26.36;100.00
54308;BME280;40208;39.778;2.710;2023-07-13T05:47:23;101233.69;;;26.40;100.00
54308;BME280;40208;39.778;2.710;2023-07-13T05:50:08;101329.50;;;26.96;100.00
54308;BME280;40208;39.778;2.710;2023-07-13T05:52:53;101235.03;;;26.36;100.00
54308;BME280;40208;39.778;2.710;2023-07-13T05:55:46;101345.31;;;26.92;100.00
54308;BME280;40208;39.778;2.710;2023-07-13T05:58:37;101342.59;;;26.92;100.00
54308;BME280;40208;39.778;2.710;2023-07-13T06:01:22;101344.59;;;26.90;100.00
54308;BME280;40208;39.778;2.710;2023-07-13T06:04:08;101248.44;;;26.29;100.00
54308;BME280;40208;39.778;2.710;2023-07-13T06:06:53;101324.81;;;26.80;100.00
54308;BME280;40208;39.778;2.710;2023-07-13T06:09:37;101271.88;;;26.48;100.00
54308;BME280;40208;39.778;2.710;2023-07-13T06:12:23;101301.75;;;26.66;100.00
54308;BME280;40208;39.778;2.710;2023-07-13T06:15:08;101328.25;;;26.90;100.00
54308;BME280;40208;39.778;2.710;2023-07-13T06:17:53;101353.44;;;27.18;100.00
54308;BME280;40208;39.778;2.710;2023-07-13T06:20:38;101369.31;;;27.23;100.00
54308;BME280;40208;39.778;2.710;2023-07-13T06:23:23;101301.72;;;26.92;100.00
54308;BME280;40208;39.778;2.710;2023-07-13T06:26:09;101328.00;;;27.10;100.00
54308;BME280;40208;39.778;2.710;2023-07-13T06:28:54;101238.09;;;26.59;100.00
54308;BME280;40208;39.778;2.710;2023-07-13T06:31:38;101123.75;;;25.90;100.00
54308;BME280;40208;39.778;2.710;2023-07-13T06:34:24;101345.31;;;27.26;100.00
54308;BME280;40208;39.778;2.710;2023-07-13T06:37:09;101374.84;;;27.39;100.00
54308;BME280;40208;39.778;2.710;2023-07-13T06:39:54;101396.34;;;27.51;100.00
54308;BME280;40208;39.778;2.710;2023-07-13T06:42:39;101262.81;;;26.74;100.00
54308;BME280;40208;39.778;2.710;2023-07-13T06:45:24;101354.34;;;27.27;100.00
54308;BME280;40208;39.778;2.710;2023-07-13T06:48:09;101405.03;;;27.54;100.00
54308;BME280;40208;39.778;2.710;2023-07-13T06:50:53;101336.56;;;27.15;100.00
54308;BME280;40208;39.778;2.710;2023-07-13T06:53:38;101312.16;;;27.05;100.00
54308;BME280;40208;39.778;2.710;2023-07-13T06:56:23;101366.31;;;27.34;100.00
54308;BME280;40208;39.778;2.710;2023-07-13T06:59:08;101422.09;;;27.64;100.00
54308;BME280;40208;39.778;2.710;2023-07-13T07:01:53;101381.66;;;27.43;100.00
54308;BME280;40208;39.778;2.710;2023-07-13T07:04:38;101409.16;;;27.58;100.00
54308;BME280;40208;39.778;2.710;2023-07-13T07:07:26;101427.41;;;27.66;100.00
54308;BME280;40208;39.778;2.710;2023-07-13T07:10:10;101399.94;;;27.51;100.00
54308;BME280;40208;39.778;2.710;2023-07-13T07:12:55;101417.84;;;27.62;100.00
54308;BME280;40208;39.778;2.710;2023-07-13T07:15:40;101359.47;;;27.30;100.00
54308;BME280;40208;39.778;2.710;2023-07-13T07:18:25;101436.97;;;27.78;100.00
54308;BME280;40208;39.778;2.710;2023-07-13T07:21:10;101221.84;;;26.49;100.00
54308;BME280;40208;39.778;2.710;2023-07-13T07:23:54;101460.47;;;28.05;100.00
54308;BME280;40208;39.778;2.710;2023-07-13T07:26:39;101346.53;;;27.32;100.00
54308;BME280;40208;39.778;2.710;2023-07-13T07:29:24;101424.72;;;27.82;100.00
54308;BME280;40208;39.778;2.710;2023-07-13T07:32:10;101434.69;;;27.91;100.00
54308;BME280;40208;39.778;2.710;2023-07-13T07:34:56;101419.28;;;27.82;100.00
54308;BME280;40208;39.778;2.710;2023-07-13T07:37:40;101437.06;;;27.86;100.00
54308;BME280;40208;39.778;2.710;2023-07-13T07:40:25;101434.47;;;27.85;100.00
54308;BME280;40208;39.778;2.710;2023-07-13T07:43:12;101403.06;;;27.73;100.00
54308;BME280;40208;39.778;2.710;2023-07-13T07:45:57;101438.09;;;27.94;100.00
54308;BME280;40208;39.778;2.710;2023-07-13T07:48:42;101480.13;;;28.33;100.00
54308;BME280;40208;39.778;2.710;2023-07-13T07:51:27;101445.28;;;28.11;100.00
54308;BME280;40208;39.778;2.710;2023-07-13T07:54:11;101476.03;;;28.38;100.00
54308;BME280;40208;39.778;2.710;2023-07-13T07:56:56;101479.78;;;28.37;100.00
54308;BME280;40208;39.778;2.710;2023-07-13T07:59:41;101457.91;;;28.20;100.00
54308;BME280;40208;39.778;2.710;2023-07-13T08:02:26;101479.09;;;28.26;100.00
54308;BME280;40208;39.778;2.710;2023-07-13T08:05:11;101480.63;;;28.29;100.00
54308;BME280;40208;39.778;2.710;2023-07-13T08:07:56;101382.44;;;27.78;100.00
54308;BME280;40208;39.778;2.710;2023-07-13T08:10:40;101342.31;;;27.46;100.00
54308;BME280;40208;39.778;2.710;2023-07-13T08:13:25;101495.53;;;28.51;100.00
54308;BME280;40208;39.778;2.710;2023-07-13T08:16:10;101449.38;;;28.23;100.00
54308;BME280;40208;39.778;2.710;2023-07-13T08:18:56;101480.81;;;28.44;100.00
54308;BME280;40208;39.778;2.710;2023-07-13T08:21:41;101427.53;;;28.07;100.00
54308;BME280;40208;39.778;2.710;2023-07-13T08:24:27;101471.59;;;28.45;100.00
54308;BME280;40208;39.778;2.710;2023-07-13T08:27:12;101441.53;;;28.28;100.00
54308;BME280;40208;39.778;2.710;2023-07-13T08:29:57;101504.94;;;28.65;100.00
54308;BME280;40208;39.778;2.710;2023-07-13T08:32:42;101508.50;;;28.65;100.00
54308;BME280;40208;39.778;2.710;2023-07-13T08:35:27;101518.41;;;28.66;100.00
54308;BME280;40208;39.778;2.710;2023-07-13T08:38:12;101512.09;;;28.66;100.00
54308;BME280;40208;39.778;2.710;2023-07-13T08:40:57;101451.44;;;28.29;100.00
54308;BME280;40208;39.778;2.710;2023-07-13T08:43:46;101512.28;;;28.64;100.00
54308;BME280;40208;39.778;2.710;2023-07-13T08:46:38;101423.47;;;28.19;100.00
54308;BME280;40208;39.778;2.710;2023-07-13T08:49:24;101463.38;;;28.45;100.00
54308;BME280;40208;39.778;2.710;2023-07-13T08:52:37;101492.28;;;28.72;100.00
54308;BME280;40208;39.778;2.710;2023-07-13T08:55:28;101533.63;;;28.93;100.00
54308;BME280;40208;39.778;2.710;2023-07-13T08:58:17;101517.91;;;28.95;100.00
54308;BME280;40208;39.778;2.710;2023-07-13T09:01:23;101513.44;;;28.94;100.00
54308;BME280;40208;39.778;2.710;2023-07-13T09:04:19;101470.44;;;28.64;100.00
54308;BME280;40208;39.778;2.710;2023-07-13T09:07:16;101530.72;;;28.95;100.00
54308;BME280;40208;39.778;2.710;2023-07-13T09:10:11;101527.97;;;28.95;100.00
54308;BME280;40208;39.778;2.710;2023-07-13T09:13:37;101521.47;;;28.96;100.00
54308;BME280;40208;39.778;2.710;2023-07-13T09:16:25;101530.72;;;28.95;100.00
54308;BME280;40208;39.778;2.710;2023-07-13T09:19:15;101474.88;;;28.65;100.00
54308;BME280;40208;39.778;2.710;2023-07-13T09:22:05;101475.72;;;28.65;100.00
54308;BME280;40208;39.778;2.710;2023-07-13T09:25:02;101418.19;;;28.34;100.00
54308;BME280;40208;39.778;2.710;2023-07-13T09:27:52;101452.16;;;28.56;100.00
54308;BME280;40208;39.778;2.710;2023-07-13T09:30:45;101529.66;;;29.04;100.00
54308;BME280;40208;39.778;2.710;2023-07-13T09:33:32;101533.44;;;29.03;100.00
54308;BME280;40208;39.778;2.710;2023-07-13T09:39:25;101510.72;;;28.78;100.00
54308;BME280;40208;39.778;2.710;2023-07-13T09:45:00;101409.31;;;28.24;100.00
54308;BME280;40208;39.778;2.710;2023-07-13T09:47:59;101464.13;;;28.55;99.14
54308;BME280;40208;39.778;2.710;2023-07-13T09:50:44;101536.31;;;29.02;100.00
54308;BME280;40208;39.778;2.710;2023-07-13T09:53:30;101472.16;;;28.65;100.00
54308;BME280;40208;39.778;2.710;2023-07-13T09:56:23;101459.34;;;28.57;100.00
54308;BME280;40208;39.778;2.710;2023-07-13T09:59:20;101445.31;;;28.44;98.31
54308;BME280;40208;39.778;2.710;2023-07-13T10:05:14;101443.28;;;28.54;98.83
54308;BME280;40208;39.778;2.710;2023-07-13T10:08:00;101481.34;;;28.64;100.00
54308;BME280;40208;39.778;2.710;2023-07-13T10:10:45;101310.50;;;27.79;98.63
54308;BME280;40208;39.778;2.710;2023-07-13T10:13:34;101457.28;;;28.59;99.42
54308;BME280;40208;39.778;2.710;2023-07-13T10:16:22;101467.88;;;28.70;99.03
54308;BME280;40208;39.778;2.710;2023-07-13T10:19:20;101483.56;;;28.68;97.83
54308;BME280;40208;39.778;2.710;2023-07-13T10:22:24;101469.22;;;28.66;98.35
54308;BME280;40208;39.778;2.710;2023-07-13T10:28:13;101538.91;;;29.03;100.00
54308;BME280;40208;39.778;2.710;2023-07-13T10:31:12;101461.72;;;28.52;100.00
54308;BME280;40208;39.778;2.710;2023-07-13T10:33:58;101492.28;;;28.72;100.00
54308;BME280;40208;39.778;2.710;2023-07-13T10:36:45;101458.50;;;28.65;100.00
54308;BME280;40208;39.778;2.710;2023-07-13T10:39:33;101438.88;;;28.53;100.00
54308;BME280;40208;39.778;2.710;2023-07-13T10:42:32;101435.13;;;28.46;100.00
54308;BME280;40208;39.778;2.710;2023-07-13T10:45:21;101454.91;;;28.64;99.71
54308;BME280;40208;39.778;2.710;2023-07-13T10:48:09;101540.44;;;29.06;99.27
54308;BME280;40208;39.778;2.710;2023-07-13T10:50:57;101541.00;;;29.09;99.57
54308;BME280;40208;39.778;2.710;2023-07-13T10:53:45;101413.91;;;28.31;98.60
54308;BME280;40208;39.778;2.710;2023-07-13T10:56:30;101504.41;;;28.78;99.64
54308;BME280;40208;39.778;2.710;2023-07-13T10:59:19;101329.41;;;27.81;98.81
54308;BME280;40208;39.778;2.710;2023-07-13T11:02:15;101462.22;;;28.47;100.00
54308;BME280;40208;39.778;2.710;2023-07-13T11:05:28;101465.97;;;28.54;99.92
54308;BME280;40208;39.778;2.710;2023-07-13T11:08:16;101520.81;;;28.86;100.00
54308;BME280;40208;39.778;2.710;2023-07-13T11:23:20;101520.25;;;29.23;99.01
54308;BME280;40208;39.778;2.710;2023-07-13T11:26:40;101530.00;;;29.34;94.04
54308;BME280;40208;39.778;2.710;2023-07-13T11:32:30;101440.53;;;28.95;93.96
54308;BME280;40208;39.778;2.710;2023-07-13T11:35:16;101517.28;;;29.49;93.80
54308;BME280;40208;39.778;2.710;2023-07-13T11:38:20;101419.84;;;29.01;96.05
54308;BME280;40208;39.778;2.710;2023-07-13T11:41:27;101512.97;;;29.63;93.07
54308;BME280;40208;39.778;2.710;2023-07-13T11:44:17;101460.59;;;29.35;91.71
54308;BME280;40208;39.778;2.710;2023-07-13T11:47:17;101483.41;;;29.58;92.45
54308;BME280;40208;39.778;2.710;2023-07-13T11:50:02;101439.44;;;29.29;91.59
54308;BME280;40208;39.778;2.710;2023-07-13T11:52:49;101508.16;;;29.82;89.34
54308;BME280;40208;39.778;2.710;2023-07-13T11:55:37;101487.34;;;29.64;91.00
54308;BME280;40208;39.778;2.710;2023-07-13T11:58:24;101458.13;;;29.56;91.01
54308;BME280;40208;39.778;2.710;2023-07-13T12:01:18;101453.00;;;29.62;nan
54308;BME280;40208;39.778;2.710;2023-07-13T12:04:04;101427.69;;;29.59;88.97
54308;BME280;40208;39.778;2.710;2023-07-13T12:07:03;101484.13;;;30.00;87.46
54308;BME280;40208;39.778;2.710;2023-07-13T12:09:48;101486.00;;;29.99;87.74
54308;BME280;40208;39.778;2.710;2023-07-13T12:12:36;101482.94;;;29.94;87.77
54308;BME280;40208;39.778;2.710;2023-07-13T12:15:22;101475.75;;;29.93;87.92
54308;BME280;40208;39.778;2.710;2023-07-13T12:18:15;101490.94;;;30.04;86.82
54308;BME280;40208;39.778;2.710;2023-07-13T12:21:02;101483.38;;;30.06;87.69
54308;BME280;40208;39.778;2.710;2023-07-13T12:23:49;101260.88;;;28.81;86.91
54308;BME280;40208;39.778;2.710;2023-07-13T12:26:34;101289.56;;;28.93;85.40
54308;BME280;40208;39.778;2.710;2023-07-13T12:29:19;101169.75;;;28.34;85.61
54308;BME280;40208;39.778;2.710;2023-07-13T12:32:08;101389.03;;;29.63;83.84
54308;BME280;40208;39.778;2.710;2023-07-13T12:35:22;101316.94;;;29.24;84.04
54308;BME280;40208;39.778;2.710;2023-07-13T12:38:08;101111.34;;;28.04;83.01
54308;BME280;40208;39.778;2.710;2023-07-13T12:40:55;101353.56;;;29.46;81.43
54308;BME280;40208;39.778;2.710;2023-07-13T12:43:40;101326.66;;;29.27;80.68
54308;BME280;40208;39.778;2.710;2023-07-13T12:46:26;101486.16;;;30.29;83.10
54308;BME280;40208;39.778;2.710;2023-07-13T12:49:13;101329.16;;;29.36;82.42
54308;BME280;40208;39.778;2.710;2023-07-13T12:52:03;101274.63;;;29.12;83.55
54308;BME280;40208;39.778;2.710;2023-07-13T12:54:57;101397.31;;;29.86;83.10
54308;BME280;40208;39.778;2.710;2023-07-13T12:57:50;101431.25;;;29.99;83.26
54308;BME280;40208;39.778;2.710;2023-07-13T13:00:36;101396.16;;;30.03;84.49
54308;BME280;40208;39.778;2.710;2023-07-13T13:09:03;101300.63;;;29.62;84.29
54308;BME280;40208;39.778;2.710;2023-07-13T13:11:48;101380.31;;;30.13;84.61
54308;BME280;40208;39.778;2.710;2023-07-13T13:14:33;101222.41;;;29.30;82.83
54308;BME280;40208;39.778;2.710;2023-07-13T13:17:23;101377.97;;;30.33;82.98
54308;BME280;40208;39.778;2.710;2023-07-13T13:20:17;101473.09;;;31.00;81.74
54308;BME280;40208;39.778;2.710;2023-07-13T13:23:04;101402.31;;;30.66;81.68
54308;BME280;40208;39.778;2.710;2023-07-13T13:25:50;101352.56;;;30.39;83.05
54308;BME280;40208;39.778;2.710;2023-07-13T13:28:35;101325.94;;;30.10;78.33
54308;BME280;40208;39.778;2.710;2023-07-13T13:31:20;101421.91;;;30.78;78.55
54308;BME280;40208;39.778;2.710;2023-07-13T13:34:09;101360.50;;;30.34;79.37
54308;BME280;40208;39.778;2.710;2023-07-13T13:36:54;101203.50;;;29.43;79.42
54308;BME280;40208;39.778;2.710;2023-07-13T13:39:39;101360.78;;;30.39;79.33
54308;BME280;40208;39.778;2.710;2023-07-13T13:42:24;101299.59;;;30.09;79.88
54308;BME280;40208;39.778;2.710;2023-07-13T13:45:11;101423.53;;;30.87;79.45
54308;BME280;40208;39.778;2.710;2023-07-13T13:47:57;101403.19;;;30.81;78.45
54308;BME280;40208;39.778;2.710;2023-07-13T13:50:41;101325.72;;;30.35;77.21
54308;BME280;40208;39.778;2.710;2023-07-13T13:53:26;101278.53;;;30.33;76.37
54308;BME280;40208;39.778;2.710;2023-07-13T13:56:12;101411.53;;;31.03;78.39
54308;BME280;40208;39.778;2.710;2023-07-13T13:58:57;101365.41;;;30.92;77.85
54308;BME280;40208;39.778;2.710;2023-07-13T14:01:44;101453.44;;;31.41;78.27
54308;BME280;40208;39.778;2.710;2023-07-13T14:04:29;101358.63;;;30.88;77.62
54308;BME280;40208;39.778;2.710;2023-07-13T14:07:13;101355.75;;;30.96;77.16
54308;BME280;40208;39.778;2.710;2023-07-13T14:10:00;101353.31;;;31.01;77.44
54308;BME280;40208;39.778;2.710;2023-07-13T14:12:52;101457.88;;;31.57;77.05
54308;BME280;40208;39.778;2.710;2023-07-13T14:15:38;101454.09;;;31.58;76.32
54308;BME280;40208;39.778;2.710;2023-07-13T14:18:22;101438.41;;;31.52;76.15
54308;BME280;40208;39.778;2.710;2023-07-13T14:21:14;101377.38;;;31.20;75.28
54308;BME280;40208;39.778;2.710;2023-07-13T14:24:00;101438.06;;;31.77;74.95
54308;BME280;40208;39.778;2.710;2023-07-13T14:26:46;101314.38;;;30.91;74.62
54308;BME280;40208;39.778;2.710;2023-07-13T14:29:31;101421.47;;;31.63;72.45
54308;BME280;40208;39.778;2.710;2023-07-13T14:32:17;101391.38;;;31.55;72.32
54308;BME280;40208;39.778;2.710;2023-07-13T14:35:04;101421.22;;;31.80;72.75
54308;BME280;40208;39.778;2.710;2023-07-13T14:37:49;101446.06;;;31.93;72.42
54308;BME280;40208;39.778;2.710;2023-07-13T14:40:37;101417.94;;;31.69;73.08
54308;BME280;40208;39.778;2.710;2023-07-13T14:43:22;101356.19;;;31.29;73.81
54308;BME280;40208;39.778;2.710;2023-07-13T14:46:27;101369.47;;;31.40;73.05
54308;BME280;40208;39.778;2.710;2023-07-13T14:49:39;101437.88;;;31.78;74.12
54308;BME280;40208;39.778;2.710;2023-07-13T14:52:25;101414.81;;;31.73;73.90
54308;BME280;40208;39.778;2.710;2023-07-13T14:55:16;101335.97;;;31.30;74.98
54308;BME280;40208;39.778;2.710;2023-07-13T14:58:01;101385.63;;;31.50;74.09